This is the latest recevied weather packets stored in our database for station/object KI4HRG. If no packets are shown the sender has not sent any weather packets the latest 10 day(s).
| Time | Temp. | Humidity | Pressure | Rain* | Wind** | Luminosity | Snow |
|---|---|---|---|---|---|---|---|
| 1777148691 | 25° C | 73% | 1009.1 hPa | 0 mm | - | 714 W/m² | - |
| 1777148387 | 25° C | 74% | 1009.1 hPa | 0 mm | - | 130 W/m² | - |
| 1777148084 | 24.44° C | 73% | 1009 hPa | 0 mm | - | 634 W/m² | - |
| 1777147780 | 25° C | 72% | 1009.3 hPa | 0 mm | - | 575 W/m² | - |
| 1777147476 | 25.56° C | 70% | 1009.1 hPa | 0 mm | - | 719 W/m² | - |
| 1777147172 | 25° C | 74% | 1009.2 hPa | 0 mm | - | 559 W/m² | - |
| 1777146868 | 25° C | 73% | 1009.2 hPa | 0 mm | - | 726 W/m² | - |
| 1777146564 | 24.44° C | 77% | 1009.4 hPa | 0 mm | - | 724 W/m² | - |
| 1777146260 | 23.33° C | 79% | 1009.6 hPa | 0 mm | - | 293 W/m² | - |
| 1777145956 | 23.89° C | 79% | 1009.6 hPa | 0 mm | - | 808 W/m² | - |
| 1777145652 | 23.89° C | 78% | 1009.6 hPa | 0 mm | - | 774 W/m² | - |
| 1777145348 | 23.89° C | 77% | 1009.7 hPa | 0 mm | - | 867 W/m² | - |
| 1777145043 | 23.33° C | 82% | 1009.5 hPa | 0 mm | - | 503 W/m² | - |
| 1777144736 | 22.22° C | 82% | 1009.9 hPa | 0 mm | - | 473 W/m² | - |
| 1777144431 | 22.22° C | 84% | 1010 hPa | 0 mm | - | 397 W/m² | - |
| 1777144129 | 22.22° C | 84% | 1009.9 hPa | 0 mm | - | 298 W/m² | - |
| 1777143824 | 22.22° C | 84% | 1009.9 hPa | 0 mm | - | 286 W/m² | - |
| 1777143521 | 22.78° C | 83% | 1009.9 hPa | 0 mm | - | 227 W/m² | - |
| 1777143216 | 22.22° C | 86% | 1010 hPa | 0 mm | - | 212 W/m² | - |
| 1777142913 | 22.22° C | 84% | 1009.9 hPa | 0 mm | - | 240 W/m² | - |
| 1777142609 | 21.67° C | 85% | 1009.9 hPa | 0 mm | - | 242 W/m² | - |
| 1777142307 | 22.78° C | 84% | 1009.9 hPa | 0 mm | - | 233 W/m² | - |
| 1777142006 | 22.78° C | 83% | 1009.9 hPa | 0 mm | - | 298 W/m² | - |
| 1777141702 | 22.78° C | 84% | 1009.9 hPa | 0 mm | - | 281 W/m² | - |
| 1777141401 | 22.22° C | 84% | 1009.9 hPa | 0 mm | - | 295 W/m² | - |
* Rain latest hour (hover to see other rain measurements)
** Current wind speed in m/s (hover to see current wind gust speed)